sensor_id;sensor_type;location;lat;lon;timestamp;P1;durP1;ratioP1;P2;durP2;ratioP2
65328;SDS011;51941;52.210;5.158;2023-07-16T00:01:41;5.25;;;1.65;;
65328;SDS011;51941;52.210;5.158;2023-07-16T00:04:08;5.18;;;1.60;;
65328;SDS011;51941;52.210;5.158;2023-07-16T00:06:34;6.90;;;1.77;;
65328;SDS011;51941;52.210;5.158;2023-07-16T00:09:02;5.88;;;1.50;;
65328;SDS011;51941;52.210;5.158;2023-07-16T00:11:29;8.50;;;1.90;;
65328;SDS011;51941;52.210;5.158;2023-07-16T00:13:56;6.45;;;1.52;;
65328;SDS011;51941;52.210;5.158;2023-07-16T00:16:23;4.90;;;1.40;;
65328;SDS011;51941;52.210;5.158;2023-07-16T00:18:50;8.32;;;1.92;;
65328;SDS011;51941;52.210;5.158;2023-07-16T00:21:16;5.35;;;1.80;;
65328;SDS011;51941;52.210;5.158;2023-07-16T00:23:43;10.88;;;2.10;;
65328;SDS011;51941;52.210;5.158;2023-07-16T00:26:11;6.68;;;2.20;;
65328;SDS011;51941;52.210;5.158;2023-07-16T00:28:39;6.88;;;2.00;;
65328;SDS011;51941;52.210;5.158;2023-07-16T00:31:05;8.38;;;2.33;;
65328;SDS011;51941;52.210;5.158;2023-07-16T00:33:32;4.63;;;1.88;;
65328;SDS011;51941;52.210;5.158;2023-07-16T00:36:01;6.25;;;1.88;;
65328;SDS011;51941;52.210;5.158;2023-07-16T00:38:28;8.77;;;1.92;;
65328;SDS011;51941;52.210;5.158;2023-07-16T00:40:55;7.22;;;2.08;;
65328;SDS011;51941;52.210;5.158;2023-07-16T00:43:23;8.35;;;2.30;;
65328;SDS011;51941;52.210;5.158;2023-07-16T00:45:50;3.95;;;1.50;;
65328;SDS011;51941;52.210;5.158;2023-07-16T00:48:17;5.70;;;1.90;;
65328;SDS011;51941;52.210;5.158;2023-07-16T00:50:45;5.70;;;2.15;;
65328;SDS011;51941;52.210;5.158;2023-07-16T00:53:12;8.55;;;2.58;;
65328;SDS011;51941;52.210;5.158;2023-07-16T00:55:39;8.05;;;2.38;;
65328;SDS011;51941;52.210;5.158;2023-07-16T00:58:06;7.45;;;2.17;;
65328;SDS011;51941;52.210;5.158;2023-07-16T01:00:35;6.82;;;2.30;;
65328;SDS011;51941;52.210;5.158;2023-07-16T01:03:05;5.10;;;2.15;;
65328;SDS011;51941;52.210;5.158;2023-07-16T01:05:34;9.00;;;2.70;;
65328;SDS011;51941;52.210;5.158;2023-07-16T01:08:06;9.80;;;2.55;;
65328;SDS011;51941;52.210;5.158;2023-07-16T01:13:03;9.35;;;2.70;;
65328;SDS011;51941;52.210;5.158;2023-07-16T01:15:30;8.15;;;2.45;;
65328;SDS011;51941;52.210;5.158;2023-07-16T01:18:00;7.63;;;2.55;;
65328;SDS011;51941;52.210;5.158;2023-07-16T01:20:27;9.50;;;2.80;;
65328;SDS011;51941;52.210;5.158;2023-07-16T01:26:05;9.73;;;2.78;;
65328;SDS011;51941;52.210;5.158;2023-07-16T01:28:41;9.98;;;2.78;;
65328;SDS011;51941;52.210;5.158;2023-07-16T01:31:26;5.97;;;2.33;;
65328;SDS011;51941;52.210;5.158;2023-07-16T01:33:54;5.97;;;2.65;;
65328;SDS011;51941;52.210;5.158;2023-07-16T01:36:23;7.22;;;2.72;;
65328;SDS011;51941;52.210;5.158;2023-07-16T01:38:50;8.45;;;2.45;;
65328;SDS011;51941;52.210;5.158;2023-07-16T01:41:17;10.50;;;2.95;;
65328;SDS011;51941;52.210;5.158;2023-07-16T01:43:45;8.32;;;2.72;;
65328;SDS011;51941;52.210;5.158;2023-07-16T01:46:11;7.22;;;2.65;;
65328;SDS011;51941;52.210;5.158;2023-07-16T01:48:41;8.48;;;2.88;;
65328;SDS011;51941;52.210;5.158;2023-07-16T01:51:08;10.98;;;3.42;;
65328;SDS011;51941;52.210;5.158;2023-07-16T01:53:34;10.82;;;3.33;;
65328;SDS011;51941;52.210;5.158;2023-07-16T01:56:02;9.13;;;3.17;;
65328;SDS011;51941;52.210;5.158;2023-07-16T01:58:30;6.03;;;2.95;;
65328;SDS011;51941;52.210;5.158;2023-07-16T02:00:57;9.80;;;3.47;;
65328;SDS011;51941;52.210;5.158;2023-07-16T02:03:24;9.85;;;3.47;;
65328;SDS011;51941;52.210;5.158;2023-07-16T02:05:52;7.20;;;2.70;;
65328;SDS011;51941;52.210;5.158;2023-07-16T02:08:18;7.72;;;3.22;;
65328;SDS011;51941;52.210;5.158;2023-07-16T02:10:46;11.82;;;3.50;;
65328;SDS011;51941;52.210;5.158;2023-07-16T02:13:13;9.52;;;2.90;;
65328;SDS011;51941;52.210;5.158;2023-07-16T02:15:40;8.20;;;3.00;;
65328;SDS011;51941;52.210;5.158;2023-07-16T02:18:08;8.48;;;3.38;;
65328;SDS011;51941;52.210;5.158;2023-07-16T02:20:35;9.70;;;3.70;;
65328;SDS011;51941;52.210;5.158;2023-07-16T02:23:03;7.97;;;3.75;;
65328;SDS011;51941;52.210;5.158;2023-07-16T02:25:30;7.00;;;3.17;;
65328;SDS011;51941;52.210;5.158;2023-07-16T02:27:58;11.67;;;3.90;;
65328;SDS011;51941;52.210;5.158;2023-07-16T02:30:25;8.02;;;3.70;;
65328;SDS011;51941;52.210;5.158;2023-07-16T02:32:52;8.95;;;3.60;;
65328;SDS011;51941;52.210;5.158;2023-07-16T02:35:19;9.00;;;3.72;;
65328;SDS011;51941;52.210;5.158;2023-07-16T02:37:47;10.02;;;3.83;;
65328;SDS011;51941;52.210;5.158;2023-07-16T02:40:15;14.30;;;3.75;;
65328;SDS011;51941;52.210;5.158;2023-07-16T02:42:42;7.88;;;3.42;;
65328;SDS011;51941;52.210;5.158;2023-07-16T02:45:09;10.77;;;4.30;;
65328;SDS011;51941;52.210;5.158;2023-07-16T02:47:36;7.78;;;3.60;;
65328;SDS011;51941;52.210;5.158;2023-07-16T02:50:03;13.60;;;3.45;;
65328;SDS011;51941;52.210;5.158;2023-07-16T02:52:31;12.43;;;4.00;;
65328;SDS011;51941;52.210;5.158;2023-07-16T02:54:58;11.82;;;3.67;;
65328;SDS011;51941;52.210;5.158;2023-07-16T02:57:26;11.93;;;4.30;;
65328;SDS011;51941;52.210;5.158;2023-07-16T02:59:52;13.05;;;4.13;;
65328;SDS011;51941;52.210;5.158;2023-07-16T03:02:19;10.45;;;3.95;;
65328;SDS011;51941;52.210;5.158;2023-07-16T03:04:46;9.15;;;3.83;;
65328;SDS011;51941;52.210;5.158;2023-07-16T03:07:13;13.10;;;3.80;;
65328;SDS011;51941;52.210;5.158;2023-07-16T03:09:40;11.77;;;4.28;;
65328;SDS011;51941;52.210;5.158;2023-07-16T03:12:07;8.15;;;3.83;;
65328;SDS011;51941;52.210;5.158;2023-07-16T03:14:36;8.55;;;3.63;;
65328;SDS011;51941;52.210;5.158;2023-07-16T03:17:03;8.73;;;3.38;;
65328;SDS011;51941;52.210;5.158;2023-07-16T03:19:32;12.68;;;3.72;;
65328;SDS011;51941;52.210;5.158;2023-07-16T03:21:59;7.93;;;4.15;;
65328;SDS011;51941;52.210;5.158;2023-07-16T03:24:27;9.38;;;3.95;;
65328;SDS011;51941;52.210;5.158;2023-07-16T03:26:54;9.80;;;3.78;;
65328;SDS011;51941;52.210;5.158;2023-07-16T03:29:21;9.07;;;3.58;;
65328;SDS011;51941;52.210;5.158;2023-07-16T03:31:50;12.07;;;3.78;;
65328;SDS011;51941;52.210;5.158;2023-07-16T03:34:18;13.80;;;4.03;;
65328;SDS011;51941;52.210;5.158;2023-07-16T03:36:45;9.60;;;3.75;;
65328;SDS011;51941;52.210;5.158;2023-07-16T03:39:12;11.02;;;3.58;;
65328;SDS011;51941;52.210;5.158;2023-07-16T03:41:39;8.75;;;3.75;;
65328;SDS011;51941;52.210;5.158;2023-07-16T03:44:05;13.15;;;4.72;;
65328;SDS011;51941;52.210;5.158;2023-07-16T03:46:34;15.88;;;3.97;;
65328;SDS011;51941;52.210;5.158;2023-07-16T03:49:02;9.65;;;3.67;;
65328;SDS011;51941;52.210;5.158;2023-07-16T03:51:32;8.65;;;3.15;;
65328;SDS011;51941;52.210;5.158;2023-07-16T03:53:59;10.73;;;3.95;;
65328;SDS011;51941;52.210;5.158;2023-07-16T03:56:26;8.98;;;3.60;;
65328;SDS011;51941;52.210;5.158;2023-07-16T03:58:53;7.40;;;3.33;;
65328;SDS011;51941;52.210;5.158;2023-07-16T04:01:21;10.45;;;3.83;;
65328;SDS011;51941;52.210;5.158;2023-07-16T04:03:47;9.45;;;3.97;;
65328;SDS011;51941;52.210;5.158;2023-07-16T04:06:15;8.15;;;3.53;;
65328;SDS011;51941;52.210;5.158;2023-07-16T04:08:42;9.38;;;3.60;;
65328;SDS011;51941;52.210;5.158;2023-07-16T04:11:09;12.45;;;3.35;;
65328;SDS011;51941;52.210;5.158;2023-07-16T04:13:36;8.90;;;3.60;;
65328;SDS011;51941;52.210;5.158;2023-07-16T04:16:03;9.95;;;3.80;;
65328;SDS011;51941;52.210;5.158;2023-07-16T04:18:30;12.23;;;3.83;;
65328;SDS011;51941;52.210;5.158;2023-07-16T04:20:57;9.20;;;4.18;;
65328;SDS011;51941;52.210;5.158;2023-07-16T04:23:25;11.70;;;3.90;;
65328;SDS011;51941;52.210;5.158;2023-07-16T04:25:52;9.82;;;4.10;;
65328;SDS011;51941;52.210;5.158;2023-07-16T04:28:19;13.27;;;5.13;;
65328;SDS011;51941;52.210;5.158;2023-07-16T04:30:46;8.73;;;3.88;;
65328;SDS011;51941;52.210;5.158;2023-07-16T04:33:13;10.80;;;4.28;;
65328;SDS011;51941;52.210;5.158;2023-07-16T04:35:40;11.70;;;3.42;;
65328;SDS011;51941;52.210;5.158;2023-07-16T04:38:06;13.40;;;4.60;;
65328;SDS011;51941;52.210;5.158;2023-07-16T04:40:35;11.13;;;4.13;;
65328;SDS011;51941;52.210;5.158;2023-07-16T04:43:01;12.30;;;3.85;;
65328;SDS011;51941;52.210;5.158;2023-07-16T04:45:28;9.02;;;3.90;;
65328;SDS011;51941;52.210;5.158;2023-07-16T04:47:55;12.18;;;3.97;;
65328;SDS011;51941;52.210;5.158;2023-07-16T04:50:22;10.27;;;3.78;;
65328;SDS011;51941;52.210;5.158;2023-07-16T04:52:48;8.90;;;4.00;;
65328;SDS011;51941;52.210;5.158;2023-07-16T04:55:15;11.65;;;4.07;;
65328;SDS011;51941;52.210;5.158;2023-07-16T04:57:43;8.65;;;4.00;;
65328;SDS011;51941;52.210;5.158;2023-07-16T05:00:10;12.88;;;3.70;;
65328;SDS011;51941;52.210;5.158;2023-07-16T05:02:38;10.32;;;4.15;;
65328;SDS011;51941;52.210;5.158;2023-07-16T05:05:05;8.13;;;3.97;;
65328;SDS011;51941;52.210;5.158;2023-07-16T05:07:32;8.07;;;3.72;;
65328;SDS011;51941;52.210;5.158;2023-07-16T05:10:01;9.88;;;4.07;;
65328;SDS011;51941;52.210;5.158;2023-07-16T05:12:28;9.40;;;3.85;;
65328;SDS011;51941;52.210;5.158;2023-07-16T05:14:56;5.88;;;2.85;;
65328;SDS011;51941;52.210;5.158;2023-07-16T05:17:22;9.05;;;3.55;;
65328;SDS011;51941;52.210;5.158;2023-07-16T05:19:49;7.72;;;3.25;;
65328;SDS011;51941;52.210;5.158;2023-07-16T05:22:20;6.78;;;3.65;;
65328;SDS011;51941;52.210;5.158;2023-07-16T05:24:46;5.72;;;3.50;;
65328;SDS011;51941;52.210;5.158;2023-07-16T05:27:13;9.23;;;3.65;;
65328;SDS011;51941;52.210;5.158;2023-07-16T05:29:40;8.40;;;3.20;;
65328;SDS011;51941;52.210;5.158;2023-07-16T05:32:08;9.40;;;4.05;;
65328;SDS011;51941;52.210;5.158;2023-07-16T05:34:35;5.65;;;3.40;;
65328;SDS011;51941;52.210;5.158;2023-07-16T05:37:02;7.47;;;3.67;;
65328;SDS011;51941;52.210;5.158;2023-07-16T05:39:29;8.43;;;3.63;;
65328;SDS011;51941;52.210;5.158;2023-07-16T05:41:56;7.13;;;3.75;;
65328;SDS011;51941;52.210;5.158;2023-07-16T05:44:23;9.85;;;3.55;;
65328;SDS011;51941;52.210;5.158;2023-07-16T05:46:49;6.18;;;3.63;;
65328;SDS011;51941;52.210;5.158;2023-07-16T05:49:17;5.20;;;3.53;;
65328;SDS011;51941;52.210;5.158;2023-07-16T05:51:44;7.05;;;3.70;;
65328;SDS011;51941;52.210;5.158;2023-07-16T05:54:11;8.90;;;3.60;;
65328;SDS011;51941;52.210;5.158;2023-07-16T05:56:38;6.60;;;3.75;;
65328;SDS011;51941;52.210;5.158;2023-07-16T05:59:04;8.38;;;3.85;;
65328;SDS011;51941;52.210;5.158;2023-07-16T06:01:31;10.32;;;4.53;;
65328;SDS011;51941;52.210;5.158;2023-07-16T06:03:58;10.77;;;3.83;;
65328;SDS011;51941;52.210;5.158;2023-07-16T06:06:27;6.10;;;3.58;;
65328;SDS011;51941;52.210;5.158;2023-07-16T06:08:54;6.88;;;3.53;;
65328;SDS011;51941;52.210;5.158;2023-07-16T06:11:21;9.05;;;3.80;;
65328;SDS011;51941;52.210;5.158;2023-07-16T06:13:47;7.07;;;3.67;;
65328;SDS011;51941;52.210;5.158;2023-07-16T06:16:14;9.70;;;3.80;;
65328;SDS011;51941;52.210;5.158;2023-07-16T06:18:41;8.23;;;3.60;;
65328;SDS011;51941;52.210;5.158;2023-07-16T06:21:08;9.57;;;3.45;;
65328;SDS011;51941;52.210;5.158;2023-07-16T06:23:36;9.10;;;3.55;;
65328;SDS011;51941;52.210;5.158;2023-07-16T06:26:04;6.50;;;3.75;;
65328;SDS011;51941;52.210;5.158;2023-07-16T06:28:34;8.25;;;4.10;;
65328;SDS011;51941;52.210;5.158;2023-07-16T06:31:01;8.85;;;3.33;;
65328;SDS011;51941;52.210;5.158;2023-07-16T06:33:27;11.13;;;3.80;;
65328;SDS011;51941;52.210;5.158;2023-07-16T06:35:54;6.10;;;3.45;;
65328;SDS011;51941;52.210;5.158;2023-07-16T06:38:21;9.05;;;4.13;;
65328;SDS011;51941;52.210;5.158;2023-07-16T06:40:49;5.93;;;3.55;;
65328;SDS011;51941;52.210;5.158;2023-07-16T06:43:18;5.55;;;3.55;;
65328;SDS011;51941;52.210;5.158;2023-07-16T06:45:45;6.75;;;3.28;;
65328;SDS011;51941;52.210;5.158;2023-07-16T06:48:12;16.17;;;3.90;;
65328;SDS011;51941;52.210;5.158;2023-07-16T06:50:38;10.70;;;4.00;;
65328;SDS011;51941;52.210;5.158;2023-07-16T06:53:05;7.93;;;3.70;;
65328;SDS011;51941;52.210;5.158;2023-07-16T06:55:32;9.25;;;4.65;;
65328;SDS011;51941;52.210;5.158;2023-07-16T06:58:01;6.47;;;3.65;;
65328;SDS011;51941;52.210;5.158;2023-07-16T07:00:28;7.20;;;4.18;;
65328;SDS011;51941;52.210;5.158;2023-07-16T07:02:55;7.88;;;3.80;;
65328;SDS011;51941;52.210;5.158;2023-07-16T07:05:22;12.63;;;4.60;;
65328;SDS011;51941;52.210;5.158;2023-07-16T07:07:49;6.07;;;3.80;;
65328;SDS011;51941;52.210;5.158;2023-07-16T07:10:16;6.28;;;3.53;;
65328;SDS011;51941;52.210;5.158;2023-07-16T07:12:42;8.43;;;4.28;;
65328;SDS011;51941;52.210;5.158;2023-07-16T07:15:11;9.93;;;3.85;;
65328;SDS011;51941;52.210;5.158;2023-07-16T07:17:37;9.35;;;3.78;;
65328;SDS011;51941;52.210;5.158;2023-07-16T07:20:05;8.13;;;3.78;;
65328;SDS011;51941;52.210;5.158;2023-07-16T07:22:33;10.13;;;3.88;;
65328;SDS011;51941;52.210;5.158;2023-07-16T07:25:00;6.75;;;4.10;;
65328;SDS011;51941;52.210;5.158;2023-07-16T07:27:27;8.27;;;3.72;;
65328;SDS011;51941;52.210;5.158;2023-07-16T07:29:53;8.13;;;4.00;;
65328;SDS011;51941;52.210;5.158;2023-07-16T07:32:22;8.77;;;3.88;;
65328;SDS011;51941;52.210;5.158;2023-07-16T07:34:49;7.30;;;4.20;;
65328;SDS011;51941;52.210;5.158;2023-07-16T07:37:16;7.38;;;3.92;;
65328;SDS011;51941;52.210;5.158;2023-07-16T07:39:43;6.60;;;4.07;;
65328;SDS011;51941;52.210;5.158;2023-07-16T07:42:12;6.72;;;4.15;;
65328;SDS011;51941;52.210;5.158;2023-07-16T07:44:39;26.45;;;4.13;;
65328;SDS011;51941;52.210;5.158;2023-07-16T07:47:06;6.68;;;4.00;;
65328;SDS011;51941;52.210;5.158;2023-07-16T07:49:35;9.18;;;4.20;;
65328;SDS011;51941;52.210;5.158;2023-07-16T07:52:01;10.00;;;4.05;;
65328;SDS011;51941;52.210;5.158;2023-07-16T07:54:29;6.80;;;4.35;;
65328;SDS011;51941;52.210;5.158;2023-07-16T07:57:00;11.93;;;4.78;;
65328;SDS011;51941;52.210;5.158;2023-07-16T07:59:27;8.95;;;4.40;;
65328;SDS011;51941;52.210;5.158;2023-07-16T08:01:54;8.45;;;4.30;;
65328;SDS011;51941;52.210;5.158;2023-07-16T08:04:21;7.10;;;4.40;;
65328;SDS011;51941;52.210;5.158;2023-07-16T08:06:49;9.32;;;4.32;;
65328;SDS011;51941;52.210;5.158;2023-07-16T08:09:20;7.72;;;4.20;;
65328;SDS011;51941;52.210;5.158;2023-07-16T08:11:46;11.38;;;4.55;;
65328;SDS011;51941;52.210;5.158;2023-07-16T08:14:13;8.57;;;4.65;;
65328;SDS011;51941;52.210;5.158;2023-07-16T08:16:40;8.82;;;4.85;;
65328;SDS011;51941;52.210;5.158;2023-07-16T08:19:07;6.60;;;4.57;;
65328;SDS011;51941;52.210;5.158;2023-07-16T08:21:34;8.15;;;4.70;;
65328;SDS011;51941;52.210;5.158;2023-07-16T08:24:04;9.30;;;4.22;;
65328;SDS011;51941;52.210;5.158;2023-07-16T08:26:31;10.30;;;4.30;;
65328;SDS011;51941;52.210;5.158;2023-07-16T08:28:58;7.72;;;4.05;;
65328;SDS011;51941;52.210;5.158;2023-07-16T08:31:26;9.23;;;4.00;;
65328;SDS011;51941;52.210;5.158;2023-07-16T08:33:53;7.80;;;4.50;;
65328;SDS011;51941;52.210;5.158;2023-07-16T08:36:20;10.57;;;4.75;;
65328;SDS011;51941;52.210;5.158;2023-07-16T08:38:46;7.47;;;4.47;;
65328;SDS011;51941;52.210;5.158;2023-07-16T08:41:13;8.50;;;4.38;;
65328;SDS011;51941;52.210;5.158;2023-07-16T08:43:40;9.18;;;4.78;;
65328;SDS011;51941;52.210;5.158;2023-07-16T08:46:09;6.37;;;4.50;;
65328;SDS011;51941;52.210;5.158;2023-07-16T08:48:36;10.63;;;5.07;;
65328;SDS011;51941;52.210;5.158;2023-07-16T08:51:02;9.68;;;4.18;;
65328;SDS011;51941;52.210;5.158;2023-07-16T08:53:31;9.35;;;4.10;;
65328;SDS011;51941;52.210;5.158;2023-07-16T08:55:57;7.68;;;3.95;;
65328;SDS011;51941;52.210;5.158;2023-07-16T08:58:26;7.57;;;4.18;;
65328;SDS011;51941;52.210;5.158;2023-07-16T09:03:22;10.52;;;4.50;;
65328;SDS011;51941;52.210;5.158;2023-07-16T09:05:48;6.72;;;4.18;;
65328;SDS011;51941;52.210;5.158;2023-07-16T09:08:15;7.68;;;4.55;;
65328;SDS011;51941;52.210;5.158;2023-07-16T09:10:42;8.40;;;4.60;;
65328;SDS011;51941;52.210;5.158;2023-07-16T09:13:09;8.45;;;4.70;;
65328;SDS011;51941;52.210;5.158;2023-07-16T09:15:38;8.43;;;3.88;;
65328;SDS011;51941;52.210;5.158;2023-07-16T09:18:06;13.60;;;5.10;;
65328;SDS011;51941;52.210;5.158;2023-07-16T09:20:35;11.55;;;4.43;;
65328;SDS011;51941;52.210;5.158;2023-07-16T09:23:02;11.73;;;5.43;;
65328;SDS011;51941;52.210;5.158;2023-07-16T09:25:29;10.10;;;4.93;;
65328;SDS011;51941;52.210;5.158;2023-07-16T09:27:57;9.27;;;4.30;;
65328;SDS011;51941;52.210;5.158;2023-07-16T09:30:30;10.25;;;4.65;;
65328;SDS011;51941;52.210;5.158;2023-07-16T09:35:35;7.97;;;4.30;;
65328;SDS011;51941;52.210;5.158;2023-07-16T09:38:02;7.95;;;3.92;;
65328;SDS011;51941;52.210;5.158;2023-07-16T09:40:29;8.30;;;4.45;;
65328;SDS011;51941;52.210;5.158;2023-07-16T09:42:56;6.10;;;3.92;;
65328;SDS011;51941;52.210;5.158;2023-07-16T09:45:23;10.52;;;4.80;;
65328;SDS011;51941;52.210;5.158;2023-07-16T09:47:50;6.88;;;3.58;;
65328;SDS011;51941;52.210;5.158;2023-07-16T09:50:19;10.27;;;4.90;;
65328;SDS011;51941;52.210;5.158;2023-07-16T09:52:47;8.75;;;4.30;;
65328;SDS011;51941;52.210;5.158;2023-07-16T09:55:14;7.70;;;4.50;;
65328;SDS011;51941;52.210;5.158;2023-07-16T09:57:42;11.70;;;4.53;;
65328;SDS011;51941;52.210;5.158;2023-07-16T10:00:10;8.23;;;4.25;;
65328;SDS011;51941;52.210;5.158;2023-07-16T10:02:41;9.02;;;4.13;;
65328;SDS011;51941;52.210;5.158;2023-07-16T10:05:12;8.57;;;3.95;;
65328;SDS011;51941;52.210;5.158;2023-07-16T10:07:40;8.18;;;4.65;;
65328;SDS011;51941;52.210;5.158;2023-07-16T10:10:08;10.60;;;4.22;;
65328;SDS011;51941;52.210;5.158;2023-07-16T10:12:36;6.18;;;3.80;;
65328;SDS011;51941;52.210;5.158;2023-07-16T10:15:04;7.55;;;4.05;;
65328;SDS011;51941;52.210;5.158;2023-07-16T10:17:32;12.15;;;4.00;;
65328;SDS011;51941;52.210;5.158;2023-07-16T10:19:59;10.10;;;4.15;;
65328;SDS011;51941;52.210;5.158;2023-07-16T10:22:36;8.75;;;3.42;;
65328;SDS011;51941;52.210;5.158;2023-07-16T10:25:07;9.40;;;4.10;;
65328;SDS011;51941;52.210;5.158;2023-07-16T10:27:35;8.00;;;4.13;;
65328;SDS011;51941;52.210;5.158;2023-07-16T10:30:04;6.13;;;3.90;;
65328;SDS011;51941;52.210;5.158;2023-07-16T10:32:32;6.82;;;3.63;;
65328;SDS011;51941;52.210;5.158;2023-07-16T10:34:59;10.70;;;4.80;;
65328;SDS011;51941;52.210;5.158;2023-07-16T10:37:27;7.10;;;4.18;;
65328;SDS011;51941;52.210;5.158;2023-07-16T10:39:54;8.25;;;3.72;;
65328;SDS011;51941;52.210;5.158;2023-07-16T10:42:24;9.82;;;4.00;;
65328;SDS011;51941;52.210;5.158;2023-07-16T10:44:52;7.38;;;3.55;;
65328;SDS011;51941;52.210;5.158;2023-07-16T10:47:22;7.10;;;4.25;;
65328;SDS011;51941;52.210;5.158;2023-07-16T10:49:50;6.68;;;3.75;;
65328;SDS011;51941;52.210;5.158;2023-07-16T10:52:19;11.10;;;4.22;;
65328;SDS011;51941;52.210;5.158;2023-07-16T10:54:47;6.93;;;3.30;;
65328;SDS011;51941;52.210;5.158;2023-07-16T10:57:15;10.05;;;4.22;;
65328;SDS011;51941;52.210;5.158;2023-07-16T10:59:43;8.00;;;4.10;;
65328;SDS011;51941;52.210;5.158;2023-07-16T11:02:11;10.27;;;4.05;;
65328;SDS011;51941;52.210;5.158;2023-07-16T11:04:39;7.85;;;3.78;;
65328;SDS011;51941;52.210;5.158;2023-07-16T11:07:07;9.68;;;3.08;;
65328;SDS011;51941;52.210;5.158;2023-07-16T11:09:39;6.32;;;3.35;;
65328;SDS011;51941;52.210;5.158;2023-07-16T11:12:08;7.85;;;2.60;;
65328;SDS011;51941;52.210;5.158;2023-07-16T11:14:35;3.88;;;2.50;;
65328;SDS011;51941;52.210;5.158;2023-07-16T11:17:07;6.80;;;2.63;;
65328;SDS011;51941;52.210;5.158;2023-07-16T11:19:34;5.80;;;2.60;;
65328;SDS011;51941;52.210;5.158;2023-07-16T11:22:04;5.82;;;2.50;;
65328;SDS011;51941;52.210;5.158;2023-07-16T11:24:36;5.78;;;2.42;;
65328;SDS011;51941;52.210;5.158;2023-07-16T11:27:05;7.68;;;2.50;;
65328;SDS011;51941;52.210;5.158;2023-07-16T11:29:35;6.40;;;2.30;;
65328;SDS011;51941;52.210;5.158;2023-07-16T11:32:02;6.53;;;2.28;;
65328;SDS011;51941;52.210;5.158;2023-07-16T11:34:31;4.07;;;2.30;;
65328;SDS011;51941;52.210;5.158;2023-07-16T11:37:06;5.85;;;2.33;;
65328;SDS011;51941;52.210;5.158;2023-07-16T11:39:34;4.35;;;2.13;;
65328;SDS011;51941;52.210;5.158;2023-07-16T11:42:02;5.97;;;2.10;;
65328;SDS011;51941;52.210;5.158;2023-07-16T11:44:32;3.30;;;1.95;;
65328;SDS011;51941;52.210;5.158;2023-07-16T11:46:59;6.88;;;2.08;;
65328;SDS011;51941;52.210;5.158;2023-07-16T11:49:27;6.97;;;2.30;;
65328;SDS011;51941;52.210;5.158;2023-07-16T11:51:55;4.97;;;2.40;;
65328;SDS011;51941;52.210;5.158;2023-07-16T11:56:49;3.35;;;2.25;;
65328;SDS011;51941;52.210;5.158;2023-07-16T11:59:16;4.85;;;2.50;;
65328;SDS011;51941;52.210;5.158;2023-07-16T12:01:45;4.75;;;2.20;;
65328;SDS011;51941;52.210;5.158;2023-07-16T12:04:13;5.50;;;2.37;;
65328;SDS011;51941;52.210;5.158;2023-07-16T12:06:40;4.22;;;2.33;;
65328;SDS011;51941;52.210;5.158;2023-07-16T12:09:08;6.55;;;2.70;;
65328;SDS011;51941;52.210;5.158;2023-07-16T12:11:35;6.80;;;2.90;;
65328;SDS011;51941;52.210;5.158;2023-07-16T12:14:04;8.18;;;2.67;;
65328;SDS011;51941;52.210;5.158;2023-07-16T12:16:31;6.10;;;2.40;;
65328;SDS011;51941;52.210;5.158;2023-07-16T12:18:57;5.35;;;2.30;;
65328;SDS011;51941;52.210;5.158;2023-07-16T12:21:24;5.88;;;3.15;;
65328;SDS011;51941;52.210;5.158;2023-07-16T12:23:51;8.65;;;2.90;;
65328;SDS011;51941;52.210;5.158;2023-07-16T12:26:23;5.40;;;2.90;;
65328;SDS011;51941;52.210;5.158;2023-07-16T12:28:49;5.32;;;2.58;;
65328;SDS011;51941;52.210;5.158;2023-07-16T12:31:16;5.60;;;2.50;;
65328;SDS011;51941;52.210;5.158;2023-07-16T12:33:43;4.88;;;2.10;;
65328;SDS011;51941;52.210;5.158;2023-07-16T12:36:10;5.97;;;2.17;;
65328;SDS011;51941;52.210;5.158;2023-07-16T12:38:37;4.13;;;2.17;;
65328;SDS011;51941;52.210;5.158;2023-07-16T12:41:04;6.60;;;2.10;;
65328;SDS011;51941;52.210;5.158;2023-07-16T12:43:33;5.10;;;2.20;;
65328;SDS011;51941;52.210;5.158;2023-07-16T12:46:00;6.13;;;2.20;;
65328;SDS011;51941;52.210;5.158;2023-07-16T12:48:28;5.53;;;2.00;;
65328;SDS011;51941;52.210;5.158;2023-07-16T12:50:55;4.63;;;2.00;;
65328;SDS011;51941;52.210;5.158;2023-07-16T12:53:22;5.60;;;2.33;;
65328;SDS011;51941;52.210;5.158;2023-07-16T12:55:48;5.78;;;2.08;;
65328;SDS011;51941;52.210;5.158;2023-07-16T12:58:15;4.72;;;1.92;;
65328;SDS011;51941;52.210;5.158;2023-07-16T13:00:43;5.30;;;2.13;;
65328;SDS011;51941;52.210;5.158;2023-07-16T13:03:10;6.70;;;2.45;;
65328;SDS011;51941;52.210;5.158;2023-07-16T13:05:39;7.43;;;2.20;;
65328;SDS011;51941;52.210;5.158;2023-07-16T13:08:06;4.40;;;2.10;;
65328;SDS011;51941;52.210;5.158;2023-07-16T13:10:33;4.90;;;2.00;;
65328;SDS011;51941;52.210;5.158;2023-07-16T13:13:00;3.72;;;2.00;;
65328;SDS011;51941;52.210;5.158;2023-07-16T13:15:28;6.60;;;2.20;;
65328;SDS011;51941;52.210;5.158;2023-07-16T13:17:56;4.63;;;1.58;;
65328;SDS011;51941;52.210;5.158;2023-07-16T13:20:23;5.00;;;1.52;;
65328;SDS011;51941;52.210;5.158;2023-07-16T13:22:50;5.30;;;1.58;;
65328;SDS011;51941;52.210;5.158;2023-07-16T13:25:17;4.93;;;1.60;;
65328;SDS011;51941;52.210;5.158;2023-07-16T13:27:44;4.25;;;1.55;;
65328;SDS011;51941;52.210;5.158;2023-07-16T13:30:11;6.13;;;1.50;;
65328;SDS011;51941;52.210;5.158;2023-07-16T13:32:38;6.57;;;1.80;;
65328;SDS011;51941;52.210;5.158;2023-07-16T13:35:07;5.20;;;1.20;;
65328;SDS011;51941;52.210;5.158;2023-07-16T13:37:34;5.45;;;1.33;;
65328;SDS011;51941;52.210;5.158;2023-07-16T13:40:01;6.25;;;1.63;;
65328;SDS011;51941;52.210;5.158;2023-07-16T13:42:28;4.40;;;1.58;;
65328;SDS011;51941;52.210;5.158;2023-07-16T13:44:54;6.45;;;1.30;;
65328;SDS011;51941;52.210;5.158;2023-07-16T13:47:21;7.60;;;1.60;;
65328;SDS011;51941;52.210;5.158;2023-07-16T13:49:48;5.28;;;1.48;;
65328;SDS011;51941;52.210;5.158;2023-07-16T13:52:16;5.13;;;1.50;;
65328;SDS011;51941;52.210;5.158;2023-07-16T13:54:43;5.15;;;1.13;;
65328;SDS011;51941;52.210;5.158;2023-07-16T13:57:10;6.40;;;1.58;;
65328;SDS011;51941;52.210;5.158;2023-07-16T13:59:37;5.75;;;1.40;;
65328;SDS011;51941;52.210;5.158;2023-07-16T14:02:03;5.82;;;1.45;;
65328;SDS011;51941;52.210;5.158;2023-07-16T14:04:31;6.10;;;1.45;;
65328;SDS011;51941;52.210;5.158;2023-07-16T14:06:58;3.92;;;1.30;;
65328;SDS011;51941;52.210;5.158;2023-07-16T14:09:27;7.88;;;1.50;;
65328;SDS011;51941;52.210;5.158;2023-07-16T14:11:53;7.68;;;1.70;;
65328;SDS011;51941;52.210;5.158;2023-07-16T14:14:24;5.50;;;1.50;;
65328;SDS011;51941;52.210;5.158;2023-07-16T14:16:50;4.80;;;1.20;;
65328;SDS011;51941;52.210;5.158;2023-07-16T14:19:18;3.88;;;1.20;;
65328;SDS011;51941;52.210;5.158;2023-07-16T14:21:45;4.40;;;1.20;;
65328;SDS011;51941;52.210;5.158;2023-07-16T14:24:11;3.63;;;1.30;;
65328;SDS011;51941;52.210;5.158;2023-07-16T14:26:40;5.68;;;1.52;;
65328;SDS011;51941;52.210;5.158;2023-07-16T14:29:06;3.47;;;1.30;;
65328;SDS011;51941;52.210;5.158;2023-07-16T14:31:33;4.45;;;1.40;;
65328;SDS011;51941;52.210;5.158;2023-07-16T14:34:00;4.47;;;1.20;;
65328;SDS011;51941;52.210;5.158;2023-07-16T14:36:27;6.55;;;1.40;;
65328;SDS011;51941;52.210;5.158;2023-07-16T14:38:54;5.57;;;1.70;;
65328;SDS011;51941;52.210;5.158;2023-07-16T14:41:20;6.72;;;1.20;;
65328;SDS011;51941;52.210;5.158;2023-07-16T14:43:49;4.93;;;1.20;;
65328;SDS011;51941;52.210;5.158;2023-07-16T14:46:16;6.53;;;1.30;;
65328;SDS011;51941;52.210;5.158;2023-07-16T14:48:43;5.22;;;1.50;;
65328;SDS011;51941;52.210;5.158;2023-07-16T14:51:11;5.55;;;1.63;;
65328;SDS011;51941;52.210;5.158;2023-07-16T14:53:38;5.63;;;1.50;;
65328;SDS011;51941;52.210;5.158;2023-07-16T14:56:05;7.45;;;1.35;;
65328;SDS011;51941;52.210;5.158;2023-07-16T14:58:32;6.32;;;1.20;;
65328;SDS011;51941;52.210;5.158;2023-07-16T15:01:01;6.47;;;1.30;;